Details From LIEE - Cagliari Elmas
To LIEA - ALGHERO
Flight Number -
Tags None
Created
Modified
Stats Distance 92 nm / 170 km
Max Altitude 9,000 ft / 2,743 m
Waypoints 6
Social Downloads 6
Likes 0
Share VATSIM

Download

Looking for another format? Having issues loading an existing format? Contact us
Advertisement - Login to hide

Notes

None

Route

LIEE DEC85 DEC47 RIKIM SODIO LIEA

ID Type Via Altitude Latitude Longitude Leg Dist Tot Dist Heading (true) Name
O LIEE APT - 13 ft / 4 m 39.25147˚ 9.05429˚ - 0 nm - Cagliari Elmas
DEC85 FIX - 3,000 ft / 914 m 39.34660˚ 9.01225˚ 6 nm 6 nm 341° / 341° -
DEC47 FIX - 6,000 ft / 1,829 m 39.54440˚ 8.92084˚ 12 nm 18 nm 340° / 340° -
RIKIM FIX - 9,000 ft / 2,743 m 39.70728˚ 8.70700˚ 13 nm 32 nm 315° / 315° -
SODIO FIX - 4,000 ft / 1,219 m 40.27778˚ 8.54194˚ 35 nm 67 nm 348° / 347° -
O LIEA APT - 87 ft / 27 m 40.63213˚ 8.29077˚ 24 nm 91 nm 332° / 332° ALGHERO

Altitude Profile

Advertisement - Login to hide

LIEE

Details ICAO LIEE (CAG)
Name Cagliari Elmas
Region Italy
Timezone Europe/Rome (UTC+1.0)
Stats Elevation 13 ft / 4 m (AMSL)
Location 39.251475° 9.054291°
Runways 1
Magnetic Variation 2.298° E

METAR

LIEE 140750Z 33007KT 300V360 9999 BKN040 13/08 Q1020

Decode

TAF

TAF LIEE 140500Z 1406/1506 33010KT 9999 SCT030 BECMG 1404/1406 24013KT

Decode

Departure Runways

ID Width Length Bearing (true) Bearing (mag) Surface Threshold Offset Overrun Length
14 148 ft / 45 m 9,157 ft / 2,791 m 138.08° 135.78° Asphalt 0 ft / 0 m 187 ft / 57 m
32 148 ft / 45 m 9,157 ft / 2,791 m 318.09° 315.79° Asphalt 0 ft / 0 m 0 ft / 0 m

LIEA

Details ICAO LIEA (AHO)
Name ALGHERO
Region Italy
Timezone Europe/Rome (UTC+1.0)
Stats Elevation 87 ft / 27 m (AMSL)
Location 40.632132° 8.290774°
Runways 1
Magnetic Variation 2.194° E

METAR

LIEA 140750Z 23016KT 9999 FEW030 15/10 Q1018

Decode

TAF

TAF LIEA 140500Z 1406/1506 23018G28KT 9999 SCT035 BECMG 1503/1506 4000 SHRA

Decode

Destination Runways

ID Width Length Bearing (true) Bearing (mag) Surface Threshold Offset Overrun Length
02 148 ft / 45 m 9,854 ft / 3,004 m 24.51° 22.32° Asphalt 0 ft / 0 m 0 ft / 0 m
20 148 ft / 45 m 9,854 ft / 3,004 m 204.52° 202.33° Asphalt 0 ft / 0 m 0 ft / 0 m

Approach Navaids

Runway Type Ident Frequency Range Bearing (true) Bearing (mag) Slope Elevation
20 Localiser IALF 110.15 MHz 18 nm / 33 km 204.47° 202.28° - 72 ft / 22 m (AMSL)
20 Glidescope IALF 110.15 MHz 10 nm / 19 km 204.51° 202.32° 3.00° 133 ft / 41 m (AMSL)
20 DME IALF 110.15 MHz 25 nm / 46 km - - - 133 ft / 41 m (AMSL)

Popular Alternatives